createdAt,value
2023-03-11T00:00:18.279Z,95626.47
2023-03-11T00:02:46.191Z,95622.44
2023-03-11T00:05:25.583Z,95636.97
2023-03-11T00:07:53.201Z,95640.81
2023-03-11T00:10:27.992Z,95630.03
2023-03-11T00:12:56.663Z,95632.56
2023-03-11T00:15:23.605Z,95635.22
2023-03-11T00:17:50.844Z,95653.22
2023-03-11T00:20:24.441Z,95659.50
2023-03-11T00:22:51.723Z,95661.97
2023-03-11T00:25:19.194Z,95646.28
2023-03-11T00:27:46.554Z,95648.63
2023-03-11T00:30:14.385Z,95644.91
2023-03-11T00:32:41.438Z,95649.84
2023-03-11T00:35:09.123Z,95656.56
2023-03-11T00:37:36.128Z,95657.53
2023-03-11T00:40:07.922Z,95661.88
2023-03-11T00:42:36.119Z,95661.78
2023-03-11T00:45:03.419Z,95659.28
2023-03-11T00:47:30.581Z,95672.22
2023-03-11T00:49:57.590Z,95659.81
2023-03-11T00:52:24.573Z,95690.06
2023-03-11T00:54:51.585Z,95682.63
2023-03-11T00:57:19.359Z,95681.94
2023-03-11T00:59:46.544Z,95694.94
2023-03-11T01:02:13.580Z,95696.47
2023-03-11T01:04:40.726Z,95699.44
2023-03-11T01:07:09.021Z,95690.84
2023-03-11T01:09:37.654Z,95699.03
2023-03-11T01:12:04.750Z,95683.00
2023-03-11T01:14:32.208Z,95678.94
2023-03-11T01:16:59.236Z,95691.69
2023-03-11T01:19:26.356Z,95681.75
2023-03-11T01:21:54.523Z,95687.13
2023-03-11T01:24:21.760Z,95689.72
2023-03-11T01:26:48.782Z,95687.81
2023-03-11T01:29:15.793Z,95694.84
2023-03-11T01:31:42.783Z,95690.53
2023-03-11T01:34:09.980Z,95684.25
2023-03-11T01:36:37.052Z,95697.47
2023-03-11T01:39:04.314Z,95702.94
2023-03-11T01:41:31.442Z,95704.63
2023-03-11T01:43:58.935Z,95698.81
2023-03-11T01:47:02.589Z,95696.69
2023-03-11T01:49:32.944Z,95689.16
2023-03-11T01:52:07.916Z,95688.66
2023-03-11T01:54:40.942Z,95685.75
2023-03-11T01:57:12.611Z,95685.91
2023-03-11T01:59:42.184Z,95684.34
2023-03-11T02:02:17.694Z,95683.66
2023-03-11T02:04:44.727Z,95676.25
2023-03-11T02:07:11.720Z,95684.53
2023-03-11T02:09:38.759Z,95679.88
2023-03-11T02:12:06.406Z,95678.88
2023-03-11T02:14:33.841Z,95683.78
2023-03-11T02:17:00.859Z,95689.91
2023-03-11T02:19:56.485Z,95683.28
2023-03-11T02:22:24.347Z,95685.28
2023-03-11T02:24:57.561Z,95683.66
2023-03-11T02:27:25.168Z,95680.94
2023-03-11T02:29:52.314Z,95683.56
2023-03-11T02:32:20.047Z,95682.75
2023-03-11T02:34:47.506Z,95678.50
2023-03-11T02:37:16.220Z,95686.94
2023-03-11T02:39:50.734Z,95683.81
2023-03-11T02:42:19.811Z,95685.63
2023-03-11T02:44:49.570Z,95676.59
2023-03-11T02:47:16.883Z,95691.72
2023-03-11T02:49:43.913Z,95680.00
2023-03-11T02:52:11.232Z,95689.03
2023-03-11T02:54:38.260Z,95685.19
2023-03-11T02:57:06.436Z,95684.41
2023-03-11T02:59:33.470Z,95697.78
2023-03-11T03:02:02.059Z,95696.63
2023-03-11T03:04:29.719Z,95702.69
2023-03-11T03:06:58.908Z,95705.63
2023-03-11T03:09:25.930Z,95699.88
2023-03-11T03:11:52.954Z,95708.41
2023-03-11T03:14:19.961Z,95717.06
2023-03-11T03:16:47.041Z,95717.41
2023-03-11T03:19:14.188Z,95734.09
2023-03-11T03:21:41.531Z,95733.25
2023-03-11T03:24:08.842Z,95739.97
2023-03-11T03:26:36.916Z,95736.00
2023-03-11T03:29:05.023Z,95741.22
2023-03-11T03:31:32.438Z,95738.72
2023-03-11T03:34:01.050Z,95733.13
2023-03-11T03:36:28.300Z,95745.47
2023-03-11T03:39:01.662Z,95750.06
2023-03-11T03:41:32.886Z,95748.75
2023-03-11T03:43:59.950Z,95754.25
2023-03-11T03:46:27.699Z,95767.13
2023-03-11T03:48:58.471Z,95774.41
2023-03-11T03:51:26.286Z,95779.81
2023-03-11T03:54:04.951Z,95772.47
2023-03-11T03:56:32.056Z,95775.34
2023-03-11T03:59:00.057Z,95787.81
2023-03-11T04:01:33.109Z,95777.44
2023-03-11T04:04:00.392Z,95779.88
2023-03-11T04:06:28.108Z,95779.59
2023-03-11T04:09:02.797Z,95778.59
2023-03-11T04:11:33.098Z,95793.09
2023-03-11T04:14:02.690Z,95804.88
2023-03-11T04:16:31.619Z,95794.13
2023-03-11T04:19:06.169Z,95799.69
2023-03-11T04:21:34.144Z,95794.06
2023-03-11T04:24:02.146Z,95802.50
2023-03-11T04:26:33.680Z,95814.84
2023-03-11T04:29:01.186Z,95809.09
2023-03-11T04:31:31.003Z,95812.22
2023-03-11T04:34:00.214Z,95817.75
2023-03-11T04:36:27.310Z,95831.31
2023-03-11T04:38:56.521Z,95834.34
2023-03-11T04:41:24.109Z,95852.66
2023-03-11T04:43:51.115Z,95840.41
2023-03-11T04:46:18.385Z,95840.66
2023-03-11T04:48:45.537Z,95843.53
2023-03-11T04:51:13.124Z,95844.22
2023-03-11T04:53:40.098Z,95847.97
2023-03-11T04:56:07.375Z,95847.22
2023-03-11T04:58:37.931Z,95853.66
2023-03-11T05:01:05.169Z,95859.47
2023-03-11T05:03:32.574Z,95860.19
2023-03-11T05:06:00.421Z,95872.22
2023-03-11T05:08:27.609Z,95870.38
2023-03-11T05:10:54.825Z,95875.13
2023-03-11T05:13:22.945Z,95875.00
2023-03-11T05:15:52.224Z,95868.97
2023-03-11T05:18:19.242Z,95874.91
2023-03-11T05:20:48.020Z,95874.78
2023-03-11T05:23:16.028Z,95881.06
2023-03-11T05:25:43.085Z,95896.00
2023-03-11T05:28:10.517Z,95892.63
2023-03-11T05:30:42.378Z,95896.22
2023-03-11T05:33:09.759Z,95902.72
2023-03-11T05:35:37.201Z,95905.22
2023-03-11T05:38:04.274Z,95910.97
2023-03-11T05:40:31.431Z,95906.97
2023-03-11T05:42:58.661Z,95906.03
2023-03-11T05:45:27.887Z,95909.22
2023-03-11T05:47:56.894Z,95902.59
2023-03-11T05:50:24.755Z,95913.41
2023-03-11T05:52:52.610Z,95920.50
2023-03-11T05:55:21.292Z,95931.47
2023-03-11T05:57:51.546Z,95923.69
2023-03-11T06:00:20.658Z,95927.25
2023-03-11T06:02:51.191Z,95935.25
2023-03-11T06:05:20.921Z,95935.53
2023-03-11T06:07:50.278Z,95925.97
2023-03-11T06:10:18.938Z,95921.59
2023-03-11T06:12:47.782Z,95916.47
2023-03-11T06:15:37.704Z,95915.03
2023-03-11T06:18:05.646Z,95922.44
2023-03-11T06:20:34.000Z,95930.41
2023-03-11T06:23:01.137Z,95939.16
2023-03-11T06:25:28.605Z,95940.47
2023-03-11T06:27:55.676Z,95951.81
2023-03-11T06:30:24.514Z,95952.81
2023-03-11T06:33:09.185Z,95960.00
2023-03-11T06:35:37.055Z,95962.25
2023-03-11T06:38:04.532Z,95963.34
2023-03-11T06:40:31.784Z,95971.00
2023-03-11T06:43:00.157Z,95967.88
2023-03-11T06:45:31.575Z,95968.34
2023-03-11T06:47:58.773Z,95964.66
2023-03-11T06:50:26.263Z,95966.53
2023-03-11T06:52:55.116Z,95975.03
2023-03-11T06:55:23.273Z,95973.97
2023-03-11T06:57:50.448Z,95972.47
2023-03-11T07:00:18.683Z,95973.53
2023-03-11T07:02:51.341Z,95973.75
2023-03-11T07:05:18.355Z,95985.75
2023-03-11T07:07:49.050Z,95990.19
2023-03-11T07:10:16.793Z,95991.94
2023-03-11T07:12:44.620Z,95989.81
2023-03-11T07:15:12.136Z,95998.22
2023-03-11T07:17:39.859Z,95998.66
2023-03-11T07:20:08.004Z,96015.38
2023-03-11T07:22:35.924Z,96007.88
2023-03-11T07:25:02.990Z,96016.72
2023-03-11T07:27:30.036Z,96017.25
2023-03-11T07:29:57.418Z,96016.44
2023-03-11T07:32:24.926Z,96016.28
2023-03-11T07:34:52.015Z,96023.09
2023-03-11T07:37:19.154Z,96028.28
2023-03-11T07:39:48.109Z,96028.81
2023-03-11T07:42:15.176Z,96038.72
2023-03-11T07:44:42.447Z,96037.97
2023-03-11T07:47:09.484Z,96046.88
2023-03-11T07:49:37.516Z,96053.13
2023-03-11T07:52:04.766Z,96065.16
2023-03-11T07:54:34.306Z,96066.22
2023-03-11T07:57:03.860Z,96078.06
2023-03-11T07:59:33.708Z,96075.16
2023-03-11T08:02:00.848Z,96079.16
2023-03-11T08:04:28.561Z,96076.72
2023-03-11T08:06:55.598Z,96072.38
2023-03-11T08:09:24.022Z,96080.19
2023-03-11T08:11:51.389Z,96084.72
2023-03-11T08:14:18.956Z,96078.66
2023-03-11T08:16:46.226Z,96075.31
2023-03-11T08:19:13.276Z,96085.00
2023-03-11T08:21:40.271Z,96085.13
2023-03-11T08:24:07.792Z,96085.41
2023-03-11T08:26:36.103Z,96089.19
2023-03-11T08:29:03.218Z,96088.75
2023-03-11T08:31:33.002Z,96087.28
2023-03-11T08:34:01.957Z,96096.25
2023-03-11T08:36:29.819Z,96092.63
2023-03-11T08:38:56.951Z,96095.66
2023-03-11T08:41:26.281Z,96102.34
2023-03-11T08:43:53.430Z,96111.28
2023-03-11T08:46:32.080Z,96109.13
2023-03-11T08:49:00.993Z,96115.41
2023-03-11T08:51:28.580Z,96123.19
2023-03-11T08:53:55.669Z,96119.91
2023-03-11T08:56:23.829Z,96124.16
2023-03-11T08:58:51.081Z,96124.84
2023-03-11T09:01:18.492Z,96129.06
2023-03-11T09:03:45.585Z,96128.16
2023-03-11T09:06:15.562Z,96130.38
2023-03-11T09:08:43.479Z,96125.44
2023-03-11T09:11:10.609Z,96131.94
2023-03-11T09:13:39.503Z,96119.84
2023-03-11T09:16:08.316Z,96127.91
2023-03-11T09:18:35.311Z,96139.16
2023-03-11T09:21:02.523Z,96142.19
2023-03-11T09:23:29.833Z,96138.72
2023-03-11T09:25:56.834Z,96144.28
2023-03-11T09:28:23.937Z,96143.03
2023-03-11T09:30:51.036Z,96139.53
2023-03-11T09:33:18.113Z,96149.38
2023-03-11T09:35:45.274Z,96154.75
2023-03-11T09:38:12.206Z,96156.16
2023-03-11T09:41:10.424Z,96161.09
2023-03-11T09:44:13.045Z,96168.22
2023-03-11T09:47:05.330Z,96163.03
2023-03-11T09:50:06.622Z,96156.00
2023-03-11T09:52:38.884Z,96160.56
2023-03-11T09:55:06.467Z,96157.06
2023-03-11T09:57:34.058Z,96158.16
2023-03-11T10:00:02.081Z,96154.34
2023-03-11T10:02:39.603Z,96155.13
2023-03-11T10:05:28.526Z,96159.94
2023-03-11T10:08:02.850Z,96172.63
2023-03-11T10:10:33.207Z,96163.41
2023-03-11T10:13:18.385Z,96173.66
2023-03-11T10:15:48.493Z,96164.69
2023-03-11T10:18:31.037Z,96171.34
2023-03-11T10:21:20.027Z,96171.84
2023-03-11T10:24:25.863Z,96176.94
2023-03-11T10:26:55.154Z,96184.88
2023-03-11T10:29:26.528Z,96188.50
2023-03-11T10:32:06.609Z,96180.84
2023-03-11T10:34:37.351Z,96184.84
2023-03-11T10:37:18.847Z,96180.34
2023-03-11T10:39:48.201Z,96180.09
2023-03-11T10:42:17.145Z,96184.16
2023-03-11T10:44:44.310Z,96174.59
2023-03-11T10:47:18.249Z,96180.94
2023-03-11T10:49:45.351Z,96177.00
2023-03-11T10:52:13.039Z,96183.16
2023-03-11T10:54:46.262Z,96184.75
2023-03-11T10:57:27.800Z,96191.31
2023-03-11T10:59:59.366Z,96184.28
2023-03-11T11:02:32.594Z,96188.47
2023-03-11T11:05:22.678Z,96192.22
2023-03-11T11:07:50.493Z,96195.31
2023-03-11T11:10:21.738Z,96186.47
2023-03-11T11:13:08.677Z,96172.66
2023-03-11T11:15:36.310Z,96176.41
2023-03-11T11:18:07.680Z,96184.22
2023-03-11T11:20:35.050Z,96176.47
2023-03-11T11:23:02.541Z,96179.78
2023-03-11T11:25:37.554Z,96188.31
2023-03-11T11:28:16.898Z,96189.06
2023-03-11T11:30:56.150Z,96187.03
2023-03-11T11:33:28.949Z,96190.88
2023-03-11T11:36:05.515Z,96185.69
2023-03-11T11:38:32.964Z,96189.75
2023-03-11T11:41:02.054Z,96186.75
2023-03-11T11:43:50.542Z,96184.66
2023-03-11T11:46:38.793Z,96191.06
2023-03-11T11:49:26.102Z,96174.25
2023-03-11T11:52:11.785Z,96174.56
2023-03-11T11:54:59.353Z,96167.59
2023-03-11T11:57:26.364Z,96179.28
2023-03-11T11:59:57.373Z,96171.00
2023-03-11T12:03:04.326Z,96163.13
2023-03-11T12:05:35.285Z,96173.38
2023-03-11T12:08:18.198Z,96159.13
2023-03-11T12:11:07.335Z,96164.16
2023-03-11T12:13:52.101Z,96175.69
2023-03-11T12:16:27.847Z,96179.56
2023-03-11T12:19:00.492Z,96180.69
2023-03-11T12:22:00.987Z,96191.19
2023-03-11T12:25:00.652Z,96183.06
2023-03-11T12:27:37.951Z,96179.75
2023-03-11T12:30:18.900Z,96182.97
2023-03-11T12:33:01.030Z,96184.22
2023-03-11T12:35:32.550Z,96185.53
2023-03-11T12:38:16.780Z,96179.56
2023-03-11T12:40:49.123Z,96178.75
2023-03-11T12:43:42.603Z,96179.97
2023-03-11T12:46:13.623Z,96177.63
2023-03-11T12:48:47.437Z,96167.22
2023-03-11T12:51:26.714Z,96161.81
2023-03-11T12:53:54.442Z,96164.59
2023-03-11T12:56:43.891Z,96152.50
2023-03-11T12:59:29.589Z,96162.50
2023-03-11T13:02:24.959Z,96150.88
2023-03-11T13:05:00.168Z,96152.94
2023-03-11T13:07:36.420Z,96157.50
2023-03-11T13:10:19.115Z,96150.91
2023-03-11T13:12:46.171Z,96160.44
2023-03-11T13:15:19.998Z,96156.25
2023-03-11T13:18:23.420Z,96163.81
2023-03-11T13:21:27.415Z,96173.28
2023-03-11T13:24:19.640Z,96179.06
2023-03-11T13:27:11.533Z,96171.88
2023-03-11T13:29:45.551Z,96182.28
2023-03-11T13:32:28.142Z,96181.91
2023-03-11T13:35:03.852Z,96188.47
2023-03-11T13:37:38.256Z,96178.81
2023-03-11T13:40:14.914Z,96187.19
2023-03-11T13:42:50.758Z,96188.41
2023-03-11T13:45:36.868Z,96190.50
2023-03-11T13:48:07.772Z,96192.00
2023-03-11T13:50:40.724Z,96191.50
2023-03-11T13:53:26.192Z,96196.53
2023-03-11T13:55:53.242Z,96198.44
2023-03-11T13:58:25.047Z,96204.69
2023-03-11T14:00:54.570Z,96204.13
2023-03-11T14:03:25.562Z,96202.25
2023-03-11T14:06:03.138Z,96200.22
2023-03-11T14:08:32.174Z,96205.69
2023-03-11T14:11:08.216Z,96204.75
2023-03-11T14:13:48.343Z,96207.44
2023-03-11T14:16:22.763Z,96209.25
2023-03-11T14:19:15.393Z,96218.72
2023-03-11T14:21:44.464Z,96217.66
2023-03-11T14:24:18.413Z,96209.59
2023-03-11T14:26:45.550Z,96222.81
2023-03-11T14:29:15.869Z,96218.81
2023-03-11T14:31:46.738Z,96224.13
2023-03-11T14:34:16.005Z,96220.28
2023-03-11T14:36:49.703Z,96226.59
2023-03-11T14:39:36.116Z,96223.13
2023-03-11T14:42:03.268Z,96223.41
2023-03-11T14:44:30.497Z,96220.81
2023-03-11T14:47:24.053Z,96229.91
2023-03-11T14:49:51.415Z,96223.66
2023-03-11T14:52:25.679Z,96226.09
2023-03-11T14:54:53.476Z,96235.06
2023-03-11T14:57:25.220Z,96229.50
2023-03-11T14:59:52.288Z,96228.25
2023-03-11T15:02:26.615Z,96225.16
2023-03-11T15:04:53.808Z,96231.34
2023-03-11T15:07:20.805Z,96237.19
2023-03-11T15:09:47.900Z,96230.41
2023-03-11T15:12:32.313Z,96228.81
2023-03-11T15:14:59.641Z,96229.75
2023-03-11T15:17:37.803Z,96227.63
2023-03-11T15:20:42.200Z,96241.78
2023-03-11T15:23:20.996Z,96235.50
2023-03-11T15:25:49.102Z,96237.41
2023-03-11T15:28:27.457Z,96237.72
2023-03-11T15:31:16.636Z,96237.25
2023-03-11T15:33:43.747Z,96253.66
2023-03-11T15:36:31.056Z,96250.78
2023-03-11T15:39:15.885Z,96240.91
2023-03-11T15:41:43.262Z,96252.72
2023-03-11T15:44:36.482Z,96262.00
2023-03-11T15:47:04.987Z,96265.03
2023-03-11T15:49:32.110Z,96263.22
2023-03-11T15:52:00.346Z,96270.78
2023-03-11T15:54:27.672Z,96273.06
2023-03-11T15:56:55.389Z,96269.38
2023-03-11T15:59:23.995Z,96272.59
2023-03-11T16:01:51.010Z,96278.31
2023-03-11T16:04:18.893Z,96267.81
2023-03-11T16:06:49.597Z,96268.09
2023-03-11T16:09:21.052Z,96272.34
2023-03-11T16:11:48.134Z,96268.72
2023-03-11T16:14:17.298Z,96263.94
2023-03-11T16:16:44.874Z,96275.25
2023-03-11T16:19:12.112Z,96281.34
2023-03-11T16:21:45.159Z,96281.56
2023-03-11T16:24:30.564Z,96288.75
2023-03-11T16:26:58.133Z,96277.66
2023-03-11T16:29:27.419Z,96267.16
2023-03-11T16:31:55.660Z,96263.63
2023-03-11T16:34:24.081Z,96263.59
2023-03-11T16:36:51.117Z,96266.72
2023-03-11T16:39:18.266Z,96269.25
2023-03-11T16:41:45.374Z,96262.66
2023-03-11T16:44:12.468Z,96272.00
2023-03-11T16:46:39.682Z,96279.41
2023-03-11T16:49:07.020Z,96295.13
2023-03-11T16:51:34.168Z,96306.88
2023-03-11T16:54:01.180Z,96309.59
2023-03-11T16:56:28.132Z,96327.50
2023-03-11T16:58:55.134Z,96330.19
2023-03-11T17:01:22.472Z,96336.66
2023-03-11T17:03:50.972Z,96351.78
2023-03-11T17:06:18.196Z,96357.88
2023-03-11T17:08:49.019Z,96368.72
2023-03-11T17:11:20.789Z,96382.41
2023-03-11T17:13:48.208Z,96396.34
2023-03-11T17:16:15.348Z,96396.16
2023-03-11T17:18:42.445Z,96393.22
2023-03-11T17:21:11.002Z,96370.94
2023-03-11T17:23:37.931Z,96356.78
2023-03-11T17:26:12.691Z,96344.13
2023-03-11T17:28:40.189Z,96353.53
2023-03-11T17:31:11.960Z,96345.19
2023-03-11T17:33:39.045Z,96352.13
2023-03-11T17:36:07.298Z,96354.72
2023-03-11T17:38:34.325Z,96360.13
2023-03-11T17:41:01.469Z,96363.06
2023-03-11T17:43:28.529Z,96364.41
2023-03-11T17:45:55.612Z,96377.69
2023-03-11T17:48:22.834Z,96378.25
2023-03-11T17:50:49.866Z,96372.16
2023-03-11T17:53:17.062Z,96376.16
2023-03-11T17:55:44.049Z,96385.97
2023-03-11T17:58:11.134Z,96387.81
2023-03-11T18:00:38.185Z,96386.75
2023-03-11T18:03:05.224Z,96383.06
2023-03-11T18:05:32.526Z,96394.19
2023-03-11T18:08:01.976Z,96391.81
2023-03-11T18:10:29.003Z,96387.56
2023-03-11T18:12:55.975Z,96394.22
2023-03-11T18:15:24.655Z,96392.06
2023-03-11T18:17:51.958Z,96393.13
2023-03-11T18:20:19.391Z,96392.06
2023-03-11T18:22:47.371Z,96400.03
2023-03-11T18:25:14.614Z,96411.47
2023-03-11T18:27:41.717Z,96411.47
2023-03-11T18:30:11.294Z,96412.78
2023-03-11T18:33:02.994Z,96421.81
2023-03-11T18:35:29.965Z,96420.69
2023-03-11T18:37:56.925Z,96419.09
2023-03-11T18:40:24.001Z,96414.31
2023-03-11T18:42:53.813Z,96414.31
2023-03-11T18:45:20.769Z,96414.22
2023-03-11T18:47:47.908Z,96421.16
2023-03-11T18:50:14.918Z,96414.31
2023-03-11T18:52:42.010Z,96423.53
2023-03-11T18:55:09.060Z,96426.13
2023-03-11T18:57:36.269Z,96437.03
2023-03-11T19:00:04.279Z,96437.06
2023-03-11T19:02:31.288Z,96442.94
2023-03-11T19:04:58.292Z,96435.97
2023-03-11T19:07:25.636Z,96433.75
2023-03-11T19:09:52.739Z,96436.69
2023-03-11T19:12:19.840Z,96439.34
2023-03-11T19:14:46.841Z,96443.81
2023-03-11T19:17:16.511Z,96442.28
2023-03-11T19:19:43.514Z,96442.75
2023-03-11T19:22:10.520Z,96439.44
2023-03-11T19:24:37.684Z,96442.53
2023-03-11T19:27:04.812Z,96454.72
2023-03-11T19:29:31.993Z,96458.94
2023-03-11T19:31:59.008Z,96459.94
2023-03-11T19:34:27.251Z,96459.84
2023-03-11T19:36:54.590Z,96465.09
2023-03-11T19:39:21.535Z,96457.69
2023-03-11T19:41:48.538Z,96466.41
2023-03-11T19:44:15.768Z,96464.41
2023-03-11T19:46:43.103Z,96469.34
2023-03-11T19:49:10.168Z,96465.94
2023-03-11T19:51:49.139Z,96476.00
2023-03-11T19:54:17.204Z,96470.00
2023-03-11T19:56:44.437Z,96475.53
2023-03-11T19:59:12.599Z,96477.84
2023-03-11T20:01:39.820Z,96481.13
2023-03-11T20:04:06.921Z,96479.78
2023-03-11T20:06:34.170Z,96477.19
2023-03-11T20:09:01.252Z,96485.59
2023-03-11T20:11:28.318Z,96488.44
2023-03-11T20:13:56.496Z,96481.56
2023-03-11T20:16:23.511Z,96491.53
2023-03-11T20:18:50.849Z,96489.84
2023-03-11T20:21:17.893Z,96502.47
2023-03-11T20:23:45.184Z,96500.56
2023-03-11T20:26:13.555Z,96501.31
2023-03-11T20:28:40.637Z,96500.38
2023-03-11T20:31:15.607Z,96502.06
2023-03-11T20:33:42.692Z,96499.47
2023-03-11T20:36:11.465Z,96502.41
2023-03-11T20:38:38.860Z,96508.31
2023-03-11T20:41:08.163Z,96500.44
2023-03-11T20:43:38.608Z,96503.75
2023-03-11T20:46:06.351Z,96504.00
2023-03-11T20:48:33.815Z,96501.47
2023-03-11T20:51:02.180Z,96507.09
2023-03-11T20:53:30.662Z,96511.56
2023-03-11T20:55:59.235Z,96516.13
2023-03-11T20:58:26.783Z,96513.63
2023-03-11T21:00:54.145Z,96516.59
2023-03-11T21:03:21.252Z,96523.06
2023-03-11T21:05:48.697Z,96515.94
2023-03-11T21:08:15.971Z,96516.66
2023-03-11T21:10:43.173Z,96514.91
2023-03-11T21:13:10.357Z,96515.44
2023-03-11T21:15:37.611Z,96525.53
2023-03-11T21:18:06.257Z,96524.72
2023-03-11T21:20:33.310Z,96524.25
2023-03-11T21:23:00.446Z,96526.16
2023-03-11T21:25:28.610Z,96532.47
2023-03-11T21:27:55.715Z,96525.97
2023-03-11T21:30:22.899Z,96522.59
2023-03-11T21:32:50.157Z,96525.00
2023-03-11T21:35:17.206Z,96535.78
2023-03-11T21:37:44.427Z,96534.47
2023-03-11T21:40:12.467Z,96537.84
2023-03-11T21:42:39.639Z,96533.75
2023-03-11T21:45:07.207Z,96532.56
2023-03-11T21:47:34.504Z,96535.19
2023-03-11T21:50:01.671Z,96533.19
2023-03-11T21:52:28.881Z,96533.59
2023-03-11T21:54:56.598Z,96542.16
2023-03-11T21:57:24.029Z,96541.59
2023-03-11T21:59:51.100Z,96544.72
2023-03-11T22:02:18.831Z,96538.72
2023-03-11T22:04:46.161Z,96533.66
2023-03-11T22:07:13.523Z,96538.97
2023-03-11T22:09:40.472Z,96548.41
2023-03-11T22:12:07.661Z,96543.75
2023-03-11T22:14:34.806Z,96550.81
2023-03-11T22:17:01.809Z,96553.69
2023-03-11T22:19:29.012Z,96543.75
2023-03-11T22:21:56.026Z,96545.19
2023-03-11T22:24:22.985Z,96552.72
2023-03-11T22:26:50.028Z,96558.19
2023-03-11T22:29:16.999Z,96551.44
2023-03-11T22:31:44.053Z,96553.44
2023-03-11T22:34:11.148Z,96550.66
2023-03-11T22:36:38.157Z,96544.38
2023-03-11T22:39:05.129Z,96546.31
2023-03-11T22:41:32.575Z,96547.13
2023-03-11T22:43:59.536Z,96547.59
2023-03-11T22:46:26.617Z,96557.69
2023-03-11T22:48:53.719Z,96551.75
2023-03-11T22:51:20.819Z,96551.13
2023-03-11T22:53:47.948Z,96551.75
2023-03-11T22:56:15.603Z,96547.56
2023-03-11T22:58:42.831Z,96549.47
2023-03-11T23:01:10.062Z,96554.56
2023-03-11T23:03:37.324Z,96553.88
2023-03-11T23:06:06.878Z,96548.97
2023-03-11T23:08:34.187Z,96558.81
2023-03-11T23:11:02.635Z,96559.63
2023-03-11T23:13:30.850Z,96564.66
2023-03-11T23:16:05.863Z,96569.25
2023-03-11T23:18:33.139Z,96572.09
2023-03-11T23:21:00.127Z,96581.03
2023-03-11T23:23:27.062Z,96578.72
2023-03-11T23:25:54.110Z,96586.47
2023-03-11T23:28:21.271Z,96594.09
2023-03-11T23:30:48.258Z,96589.03
2023-03-11T23:33:15.194Z,96580.19
2023-03-11T23:35:43.024Z,96585.72
2023-03-11T23:38:10.213Z,96590.28
2023-03-11T23:40:39.716Z,96578.19
2023-03-11T23:43:06.877Z,96578.97
2023-03-11T23:45:33.937Z,96578.84
2023-03-11T23:48:00.935Z,96570.34
2023-03-11T23:50:27.971Z,96578.81
2023-03-11T23:52:54.912Z,96583.59
2023-03-11T23:55:21.866Z,96583.00
2023-03-11T23:57:48.858Z,96592.41
